Time;durP1;ratioP1;P1;durP2;ratioP2;P2;SDS_P1;SDS_P2;PMS_P1;PMS_P2;Temp;Humidity;BMP_temperature;BMP_pressure;BME280_temperature;BME280_humidity;BME280_pressure;Samples;Min_cycle;Max_cycle;Signal;HPM_P1;HPM_P2
2023/07/08 00:01:20;;;;;;;25.55;23.55;;;19.80;99.90;;;;;;4990683;28;20125;-73
2023/07/08 00:03:47;;;;;;;24.83;23.02;;;19.80;99.90;;;;;;4988857;28;20050;-73
2023/07/08 00:06:20;;;;;;;25.33;23.42;;;19.80;99.90;;;;;;4991301;28;20048;-74
2023/07/08 00:08:47;;;;;;;26.25;24.02;;;19.70;99.90;;;;;;4989854;28;20042;-73
2023/07/08 00:11:15;;;;;;;26.10;23.90;;;19.70;99.90;;;;;;4989129;28;20578;-73
2023/07/08 00:13:42;;;;;;;25.40;23.23;;;19.70;99.90;;;;;;4986939;28;20401;-73
2023/07/08 00:16:15;;;;;;;26.25;24.15;;;19.80;99.90;;;;;;4988348;28;20136;-72
2023/07/08 00:18:41;;;;;;;26.02;24.20;;;19.70;99.90;;;;;;4996977;28;20123;-73
2023/07/08 00:21:10;;;;;;;26.15;24.25;;;19.60;99.90;;;;;;4994998;28;20539;-73
2023/07/08 00:23:37;;;;;;;26.38;24.38;;;19.40;99.90;;;;;;5000034;28;20269;-72
2023/07/08 00:26:26;;;;;;;26.73;24.75;;;19.40;99.90;;;;;;4992031;28;20053;-71
2023/07/08 00:28:54;;;;;;;26.85;24.65;;;19.30;99.90;;;;;;4989212;28;20058;-74
2023/07/08 00:31:23;;;;;;;26.08;24.17;;;19.20;99.90;;;;;;4995421;28;20049;-74
2023/07/08 00:33:51;;;;;;;26.30;24.20;;;19.30;99.90;;;;;;4998072;28;20061;-73
2023/07/08 00:36:18;;;;;;;26.30;24.05;;;19.40;99.90;;;;;;4996299;28;20049;-73
2023/07/08 00:38:44;;;;;;;26.30;24.40;;;19.40;99.90;;;;;;5000970;28;20046;-74
2023/07/08 00:41:27;;;;;;;26.17;24.17;;;19.50;99.90;;;;;;5000833;28;20038;-73
2023/07/08 00:43:57;;;;;;;25.90;24.10;;;19.40;99.90;;;;;;5001495;28;20108;-74
2023/07/08 00:46:28;;;;;;;26.40;24.10;;;19.40;99.90;;;;;;4994466;28;20042;-73
2023/07/08 00:49:07;;;;;;;25.70;23.98;;;19.30;99.90;;;;;;5003687;28;20061;-73
2023/07/08 00:51:37;;;;;;;25.75;23.83;;;19.30;99.90;;;;;;5005255;28;20069;-73
2023/07/08 00:54:05;;;;;;;25.73;23.92;;;19.40;99.90;;;;;;4993766;28;20112;-73
2023/07/08 00:56:46;;;;;;;26.60;24.45;;;19.40;99.90;;;;;;4992385;28;20054;-72
2023/07/08 00:59:21;;;;;;;26.40;24.50;;;19.20;99.90;;;;;;4992351;28;20078;-73
2023/07/08 01:01:49;;;;;;;26.83;24.60;;;18.90;99.90;;;;;;4983427;28;20055;-71
2023/07/08 01:04:22;;;;;;;27.15;24.85;;;18.80;99.90;;;;;;4972888;28;20043;-73
2023/07/08 01:06:57;;;;;;;27.27;25.02;;;18.70;99.90;;;;;;4972563;28;20057;-72
2023/07/08 01:09:28;;;;;;;26.27;24.42;;;18.50;99.90;;;;;;4977320;28;20049;-74
2023/07/08 01:11:58;;;;;;;26.05;24.02;;;18.50;99.90;;;;;;4974090;28;20073;-73
2023/07/08 01:14:27;;;;;;;26.05;24.25;;;18.40;99.90;;;;;;4975782;28;20070;-72
2023/07/08 01:16:54;;;;;;;27.17;25.02;;;18.40;99.90;;;;;;4972681;28;20500;-73
2023/07/08 01:19:31;;;;;;;25.75;24.02;;;18.30;99.90;;;;;;4970022;28;20046;-72
2023/07/08 01:22:07;;;;;;;25.65;23.85;;;18.40;99.90;;;;;;4956498;28;20104;-74
2023/07/08 01:24:38;;;;;;;25.85;24.02;;;18.50;99.90;;;;;;4973915;28;20050;-74
2023/07/08 01:27:09;;;;;;;26.48;24.60;;;18.70;99.90;;;;;;4972096;28;20141;-75
2023/07/08 01:29:36;;;;;;;26.55;24.70;;;18.80;99.90;;;;;;4969938;28;20105;-73
2023/07/08 01:32:03;;;;;;;26.10;24.30;;;18.80;99.90;;;;;;4974475;28;20696;-74
2023/07/08 01:34:32;;;;;;;26.98;24.98;;;19.10;99.90;;;;;;4974108;28;20050;-74
2023/07/08 01:37:02;;;;;;;27.10;25.13;;;18.80;99.90;;;;;;4970115;28;20717;-75
2023/07/08 01:39:30;;;;;;;27.38;25.35;;;18.60;99.90;;;;;;4971271;28;20054;-74
2023/07/08 01:41:58;;;;;;;27.42;25.33;;;18.50;99.90;;;;;;4969175;28;20047;-74
2023/07/08 01:44:34;;;;;;;26.73;24.58;;;18.40;99.90;;;;;;4970424;28;20042;-73
2023/07/08 01:47:08;;;;;;;27.08;25.13;;;18.50;99.90;;;;;;4969245;28;20043;-74
2023/07/08 01:49:37;;;;;;;27.20;25.17;;;18.70;99.90;;;;;;4972228;28;20101;-74
2023/07/08 01:52:05;;;;;;;26.85;24.88;;;18.70;99.90;;;;;;4970901;28;20046;-74
2023/07/08 01:54:32;;;;;;;27.38;25.23;;;18.60;99.90;;;;;;4969431;28;20070;-74
2023/07/08 01:57:00;;;;;;;26.35;24.40;;;18.50;99.90;;;;;;4970834;28;20042;-73
2023/07/08 01:59:27;;;;;;;27.45;25.20;;;18.20;99.90;;;;;;4971074;28;20046;-72
2023/07/08 02:01:55;;;;;;;26.13;24.25;;;18.10;99.90;;;;;;4968530;28;20515;-72
2023/07/08 02:04:24;;;;;;;27.10;25.10;;;18.10;99.90;;;;;;4969734;28;20053;-72
2023/07/08 02:06:55;;;;;;;27.13;24.98;;;18.10;99.90;;;;;;4973412;28;20058;-73
2023/07/08 02:09:24;;;;;;;27.13;25.08;;;18.10;99.90;;;;;;4969816;28;20057;-73
2023/07/08 02:11:52;;;;;;;27.13;25.05;;;18.10;99.90;;;;;;4975218;28;20544;-72
2023/07/08 02:14:19;;;;;;;27.70;25.50;;;18.00;99.90;;;;;;4974761;28;20401;-75
2023/07/08 02:16:46;;;;;;;27.65;25.60;;;18.00;99.90;;;;;;4978459;28;20662;-71
2023/07/08 02:19:13;;;;;;;26.60;24.80;;;18.00;99.90;;;;;;4970676;28;20145;-73
2023/07/08 02:21:40;;;;;;;26.83;24.83;;;17.80;99.90;;;;;;4968612;28;20133;-72
2023/07/08 02:24:07;;;;;;;27.35;25.25;;;17.70;99.90;;;;;;4972626;28;20109;-73
2023/07/08 02:26:35;;;;;;;27.17;24.88;;;17.60;99.90;;;;;;4972917;28;21560;-73
2023/07/08 02:29:02;;;;;;;27.10;25.20;;;17.60;99.90;;;;;;4971187;28;20492;-74
2023/07/08 02:31:30;;;;;;;27.45;25.25;;;17.50;99.90;;;;;;4967565;28;20485;-74
2023/07/08 02:33:57;;;;;;;27.58;25.58;;;17.40;99.90;;;;;;4970697;28;20085;-72
2023/07/08 02:36:24;;;;;;;27.02;25.13;;;17.30;99.90;;;;;;4967279;28;20043;-73
2023/07/08 02:38:51;;;;;;;27.05;25.05;;;17.30;99.90;;;;;;4970663;28;20124;-73
2023/07/08 02:41:18;;;;;;;27.15;25.15;;;17.20;99.90;;;;;;4967942;28;20046;-73
2023/07/08 02:43:45;;;;;;;27.00;24.90;;;17.20;99.90;;;;;;4978259;28;20061;-72
2023/07/08 02:46:12;;;;;;;27.92;25.30;;;17.20;99.90;;;;;;4968264;28;20105;-73
2023/07/08 02:48:39;;;;;;;28.13;25.77;;;17.10;99.90;;;;;;4970992;28;20046;-72
2023/07/08 02:51:08;;;;;;;26.95;24.73;;;17.20;99.90;;;;;;4970558;28;20129;-74
2023/07/08 02:53:35;;;;;;;27.52;25.15;;;17.40;99.90;;;;;;4970153;28;20085;-71
2023/07/08 02:56:02;;;;;;;26.75;24.75;;;17.30;99.90;;;;;;4968655;28;20159;-74
2023/07/08 02:58:29;;;;;;;27.35;25.08;;;17.30;99.90;;;;;;4968598;28;20723;-73
2023/07/08 03:01:00;;;;;;;26.90;24.67;;;17.30;99.90;;;;;;4974419;28;20402;-72
2023/07/08 03:03:29;;;;;;;25.42;23.73;;;17.60;99.90;;;;;;4971296;28;20519;-73
2023/07/08 03:06:01;;;;;;;25.67;23.88;;;18.00;99.90;;;;;;4967861;28;20045;-73
2023/07/08 03:08:28;;;;;;;27.00;24.50;;;18.00;99.90;;;;;;4971282;28;20073;-73
2023/07/08 03:10:58;;;;;;;26.13;23.98;;;18.10;99.90;;;;;;4971257;28;20108;-72
2023/07/08 03:13:26;;;;;;;26.25;24.25;;;18.00;99.90;;;;;;4966176;28;20038;-73
2023/07/08 03:15:58;;;;;;;26.52;24.52;;;18.00;99.90;;;;;;4955817;28;20042;-73
2023/07/08 03:18:27;;;;;;;25.67;23.88;;;17.80;99.90;;;;;;4974466;28;20141;-73
2023/07/08 03:20:56;;;;;;;25.83;24.08;;;17.60;99.90;;;;;;4967361;28;20050;-74
2023/07/08 03:23:24;;;;;;;25.92;24.08;;;17.70;99.90;;;;;;4965655;28;20053;-74
2023/07/08 03:25:52;;;;;;;25.95;23.98;;;17.60;99.90;;;;;;4973962;28;20070;-73
2023/07/08 03:28:21;;;;;;;34.40;32.30;;;17.60;99.90;;;;;;4972909;28;20058;-73
2023/07/08 03:30:52;;;;;;;33.88;31.80;;;17.80;99.90;;;;;;4967560;28;20053;-72
2023/07/08 03:33:20;;;;;;;34.17;31.98;;;17.80;99.90;;;;;;4957331;28;20057;-73
2023/07/08 03:35:48;;;;;;;34.17;31.75;;;18.10;99.90;;;;;;4967444;28;20046;-73
2023/07/08 03:38:15;;;;;;;33.53;31.40;;;18.20;99.90;;;;;;4964196;28;20058;-73
2023/07/08 03:40:42;;;;;;;33.58;31.38;;;18.20;99.90;;;;;;4971624;28;20046;-73
2023/07/08 03:43:09;;;;;;;33.83;31.63;;;18.20;99.90;;;;;;4972011;28;20681;-74
2023/07/08 03:45:36;;;;;;;33.17;30.95;;;18.30;99.90;;;;;;4955172;28;20743;-73
2023/07/08 03:48:04;;;;;;;33.05;30.58;;;18.40;99.90;;;;;;4966140;28;20057;-73
2023/07/08 03:50:32;;;;;;;32.78;30.83;;;18.50;99.90;;;;;;4950865;28;20057;-73
2023/07/08 03:52:58;;;;;;;33.85;31.75;;;18.50;99.90;;;;;;4971460;28;20117;-74
2023/07/08 03:55:28;;;;;;;34.00;31.60;;;18.40;99.90;;;;;;4967918;28;20547;-73
2023/07/08 03:57:56;;;;;;;33.05;30.92;;;18.10;99.90;;;;;;4967846;28;20050;-74
2023/07/08 04:00:24;;;;;;;32.15;30.15;;;18.10;99.90;;;;;;4952358;28;20517;-72
2023/07/08 04:02:51;;;;;;;32.67;30.40;;;18.00;99.90;;;;;;4972466;28;20047;-73
2023/07/08 04:05:22;;;;;;;34.00;31.35;;;17.90;99.90;;;;;;4966584;28;20468;-73
2023/07/08 04:07:49;;;;;;;32.53;30.30;;;17.90;99.90;;;;;;4969549;28;20501;-73
2023/07/08 04:10:16;;;;;;;31.13;28.88;;;17.80;99.90;;;;;;4972556;28;20046;-72
2023/07/08 04:12:43;;;;;;;31.15;29.08;;;18.00;99.90;;;;;;4973007;28;20489;-73
2023/07/08 04:15:11;;;;;;;30.65;28.65;;;18.10;99.90;;;;;;4974194;28;20066;-73
2023/07/08 04:17:45;;;;;;;31.80;29.80;;;18.00;99.90;;;;;;4972840;28;20047;-74
2023/07/08 04:20:14;;;;;;;31.20;29.20;;;18.00;99.90;;;;;;4971840;28;20046;-74
2023/07/08 04:22:41;;;;;;;31.48;29.35;;;18.00;99.90;;;;;;4974347;28;20057;-74
2023/07/08 04:25:10;;;;;;;32.10;29.67;;;18.00;99.90;;;;;;4969749;28;20420;-74
2023/07/08 04:27:38;;;;;;;32.75;30.20;;;18.00;99.90;;;;;;4977433;28;20069;-73
2023/07/08 04:30:06;;;;;;;32.03;29.70;;;18.30;99.90;;;;;;4975495;28;20050;-73
2023/07/08 04:32:33;;;;;;;31.08;29.02;;;18.50;99.90;;;;;;4979669;28;20042;-74
2023/07/08 04:34:59;;;;;;;32.05;29.92;;;18.70;99.90;;;;;;4978806;28;20046;-72
2023/07/08 04:37:26;;;;;;;32.47;30.27;;;18.90;99.90;;;;;;4972461;28;20054;-75
2023/07/08 04:39:53;;;;;;;32.05;30.00;;;19.10;99.90;;;;;;4978312;28;20141;-74
2023/07/08 04:42:20;;;;;;;32.83;30.70;;;19.40;99.90;;;;;;4974576;28;20749;-73
2023/07/08 04:44:49;;;;;;;32.67;30.30;;;19.50;99.90;;;;;;4980658;28;20050;-74
2023/07/08 04:47:16;;;;;;;31.98;29.95;;;19.60;99.90;;;;;;4972867;28;20137;-74
2023/07/08 04:49:43;;;;;;;31.33;29.23;;;19.60;99.90;;;;;;4974558;28;21576;-74
2023/07/08 04:52:10;;;;;;;31.15;29.00;;;19.60;99.90;;;;;;4972470;28;20062;-74
2023/07/08 04:54:37;;;;;;;31.92;29.73;;;19.50;99.90;;;;;;4977604;28;20060;-74
2023/07/08 04:57:04;;;;;;;33.33;31.05;;;19.50;99.90;;;;;;4971839;28;20074;-72
2023/07/08 04:59:34;;;;;;;34.33;32.13;;;19.30;99.90;;;;;;4972694;28;20081;-72
2023/07/08 05:02:01;;;;;;;34.55;32.42;;;19.50;99.90;;;;;;4975002;28;20073;-72
2023/07/08 05:04:28;;;;;;;34.28;32.05;;;19.60;99.90;;;;;;4972857;28;20042;-73
2023/07/08 05:06:55;;;;;;;33.30;31.20;;;19.90;99.90;;;;;;4978212;28;20105;-74
2023/07/08 05:09:25;;;;;;;31.10;29.10;;;19.90;99.90;;;;;;4977606;28;20112;-72
2023/07/08 05:11:52;;;;;;;31.35;29.35;;;20.00;99.90;;;;;;4964501;28;20039;-73
2023/07/08 05:14:19;;;;;;;31.00;28.88;;;20.10;99.90;;;;;;4976335;28;20529;-72
2023/07/08 05:16:46;;;;;;;30.98;28.88;;;20.30;99.90;;;;;;4974883;28;20096;-71
2023/07/08 05:19:13;;;;;;;31.42;29.35;;;20.60;99.90;;;;;;4974202;28;20053;-73
2023/07/08 05:21:40;;;;;;;32.15;30.23;;;20.80;99.90;;;;;;4979561;28;20417;-72
2023/07/08 05:24:08;;;;;;;31.10;28.98;;;21.20;99.90;;;;;;4980757;28;20047;-73
2023/07/08 05:26:35;;;;;;;31.50;29.38;;;21.40;99.90;;;;;;4979776;28;20038;-72
2023/07/08 05:29:02;;;;;;;31.90;29.52;;;21.50;99.90;;;;;;4981047;28;20129;-72
2023/07/08 05:31:29;;;;;;;31.77;29.58;;;21.60;99.90;;;;;;4974027;28;20146;-73
2023/07/08 05:33:59;;;;;;;31.70;29.70;;;21.60;99.90;;;;;;4972686;28;20101;-73
2023/07/08 05:36:25;;;;;;;31.83;29.02;;;21.80;99.90;;;;;;4974065;28;20624;-73
2023/07/08 05:38:52;;;;;;;32.65;30.35;;;22.00;99.90;;;;;;4976976;28;20216;-73
2023/07/08 05:41:19;;;;;;;31.85;29.65;;;22.10;99.90;;;;;;4973946;28;20050;-73
2023/07/08 05:43:46;;;;;;;32.65;30.48;;;22.00;99.90;;;;;;4969706;28;20062;-73
2023/07/08 05:46:13;;;;;;;31.35;29.05;;;22.00;99.90;;;;;;4973001;28;20055;-73
2023/07/08 05:48:40;;;;;;;31.45;29.42;;;21.90;99.90;;;;;;4982493;28;20679;-71
2023/07/08 05:51:07;;;;;;;32.88;30.55;;;22.00;99.90;;;;;;4978310;28;20139;-72
2023/07/08 05:53:34;;;;;;;32.83;30.73;;;22.20;99.90;;;;;;4992234;28;20104;-73
2023/07/08 05:56:03;;;;;;;31.98;29.52;;;22.30;99.90;;;;;;5010045;28;20052;-72
2023/07/08 05:58:30;;;;;;;31.58;29.63;;;22.30;99.90;;;;;;4991957;28;20040;-73
2023/07/08 06:00:57;;;;;;;32.38;30.13;;;22.40;99.90;;;;;;4995988;28;20047;-73
2023/07/08 06:03:26;;;;;;;38.42;35.83;;;22.50;99.90;;;;;;5001694;28;20054;-73
2023/07/08 06:05:53;;;;;;;38.53;36.08;;;22.50;99.90;;;;;;4987364;28;20042;-73
2023/07/08 06:08:19;;;;;;;40.17;37.42;;;22.60;99.90;;;;;;4989680;28;20069;-73
2023/07/08 06:10:46;;;;;;;37.35;34.95;;;22.60;99.90;;;;;;4994511;28;20910;-72
2023/07/08 06:13:13;;;;;;;36.22;33.80;;;22.60;99.90;;;;;;4988910;28;20062;-73
2023/07/08 06:15:42;;;;;;;36.33;34.03;;;22.90;99.90;;;;;;4996025;28;20053;-72
2023/07/08 06:18:09;;;;;;;38.67;36.47;;;23.10;99.90;;;;;;4992764;28;20060;-73
2023/07/08 06:20:36;;;;;;;35.15;32.92;;;23.30;99.90;;;;;;4990384;28;20047;-72
2023/07/08 06:23:03;;;;;;;36.35;34.22;;;23.30;99.90;;;;;;4993828;28;20070;-72
2023/07/08 06:25:31;;;;;;;37.83;35.28;;;23.10;99.90;;;;;;4990413;28;20104;-72
2023/07/08 06:27:57;;;;;;;37.72;35.58;;;23.30;99.90;;;;;;4988971;28;20042;-73
2023/07/08 06:30:24;;;;;;;38.83;36.42;;;23.30;99.90;;;;;;4988618;28;20133;-73
2023/07/08 06:32:51;;;;;;;40.72;38.35;;;23.40;99.90;;;;;;4992835;28;20120;-73
2023/07/08 06:35:18;;;;;;;41.47;39.03;;;23.80;99.90;;;;;;4984345;28;20050;-72
2023/07/08 06:37:44;;;;;;;38.75;36.45;;;23.90;99.90;;;;;;4993403;28;20038;-73
2023/07/08 06:40:12;;;;;;;39.83;37.35;;;24.30;99.90;;;;;;4987751;28;20116;-72
2023/07/08 06:42:39;;;;;;;40.35;38.03;;;24.30;99.90;;;;;;4986604;28;20038;-72
2023/07/08 06:45:16;;;;;;;42.47;39.78;;;24.10;99.90;;;;;;4989295;28;20077;-73
2023/07/08 06:47:43;;;;;;;39.72;37.47;;;24.20;99.90;;;;;;4985186;28;20042;-73
2023/07/08 06:50:10;;;;;;;39.17;36.60;;;24.40;99.90;;;;;;4989811;28;20121;-71
2023/07/08 06:52:37;;;;;;;38.95;36.28;;;24.40;99.90;;;;;;4996519;28;20135;-73
2023/07/08 06:55:07;;;;;;;41.70;39.22;;;24.20;99.90;;;;;;4995702;28;20555;-73
2023/07/08 06:57:34;;;;;;;41.33;38.92;;;24.20;99.90;;;;;;4988549;28;20057;-73
2023/07/08 07:00:03;;;;;;;43.33;40.70;;;24.20;99.90;;;;;;4993652;28;20034;-72
2023/07/08 07:02:29;;;;;;;41.30;38.90;;;24.10;99.90;;;;;;4992131;28;20754;-73
2023/07/08 07:04:56;;;;;;;41.40;38.92;;;24.30;99.90;;;;;;4990431;28;20053;-73
2023/07/08 07:07:23;;;;;;;42.97;40.45;;;24.20;99.90;;;;;;4994141;28;20046;-70
2023/07/08 07:09:49;;;;;;;42.05;39.55;;;24.30;99.90;;;;;;5014372;28;20054;-73
2023/07/08 07:12:16;;;;;;;41.78;39.42;;;24.40;99.90;;;;;;4988341;28;20038;-71
2023/07/08 07:14:43;;;;;;;41.38;39.08;;;24.60;99.90;;;;;;4995022;28;20065;-73
2023/07/08 07:17:13;;;;;;;41.20;38.80;;;24.70;99.90;;;;;;4984343;28;20043;-72
2023/07/08 07:19:40;;;;;;;41.60;39.20;;;25.20;99.90;;;;;;4991630;28;20045;-72
2023/07/08 07:22:07;;;;;;;42.42;39.88;;;25.40;99.90;;;;;;4989182;28;20050;-72
2023/07/08 07:24:34;;;;;;;43.47;40.92;;;25.00;99.90;;;;;;4994807;28;20046;-74
2023/07/08 07:27:01;;;;;;;44.45;40.97;;;24.70;99.90;;;;;;4994896;28;20694;-73
2023/07/08 07:29:37;;;;;;;43.47;40.97;;;24.60;99.90;;;;;;4987433;28;20038;-73
2023/07/08 07:32:04;;;;;;;42.60;39.92;;;24.90;99.90;;;;;;4990210;28;20543;-72
2023/07/08 07:34:31;;;;;;;42.65;40.25;;;25.40;99.90;;;;;;4993417;28;20605;-73
2023/07/08 07:36:58;;;;;;;43.53;41.00;;;26.00;99.90;;;;;;4993559;28;20042;-73
2023/07/08 07:39:24;;;;;;;44.05;41.25;;;26.20;99.90;;;;;;4986094;28;20105;-74
2023/07/08 07:41:51;;;;;;;46.83;43.92;;;26.50;99.90;;;;;;4991796;28;20053;-71
2023/07/08 07:44:19;;;;;;;46.25;43.60;;;26.30;99.90;;;;;;4994594;28;20100;-71
2023/07/08 07:46:46;;;;;;;46.38;43.45;;;26.40;99.90;;;;;;4990513;28;20104;-74
2023/07/08 07:49:13;;;;;;;47.72;44.83;;;26.40;99.90;;;;;;4998716;28;20046;-73
2023/07/08 07:51:40;;;;;;;47.72;44.88;;;26.40;99.90;;;;;;4994697;28;20049;-74
2023/07/08 07:54:07;;;;;;;48.35;45.60;;;25.80;99.90;;;;;;5000522;28;20121;-74
2023/07/08 07:56:33;;;;;;;47.15;44.47;;;25.70;99.90;;;;;;4993226;28;20050;-72
2023/07/08 07:59:00;;;;;;;48.40;45.35;;;26.00;99.90;;;;;;4993870;28;20080;-71
2023/07/08 08:01:27;;;;;;;48.33;45.53;;;26.00;99.90;;;;;;4993236;28;20065;-72
2023/07/08 08:03:54;;;;;;;47.47;44.67;;;26.30;99.90;;;;;;4994669;28;20042;-72
2023/07/08 08:06:21;;;;;;;44.88;42.17;;;26.60;99.90;;;;;;4994805;28;20062;-72
2023/07/08 08:08:48;;;;;;;45.42;42.80;;;26.30;99.90;;;;;;4995183;28;20053;-72
2023/07/08 08:11:16;;;;;;;48.15;45.35;;;26.10;99.90;;;;;;4997833;28;20042;-71
2023/07/08 08:13:43;;;;;;;47.58;44.72;;;26.20;99.90;;;;;;5004892;28;20038;-71
2023/07/08 08:16:09;;;;;;;47.83;44.92;;;26.50;99.90;;;;;;4994040;28;20054;-71
2023/07/08 08:18:36;;;;;;;48.70;45.80;;;27.20;99.90;;;;;;4996076;28;20056;-72
2023/07/08 08:21:03;;;;;;;46.85;44.15;;;27.00;99.90;;;;;;4999436;28;20041;-72
2023/07/08 08:23:29;;;;;;;45.85;43.15;;;26.70;99.90;;;;;;5002180;28;20661;-73
2023/07/08 08:25:56;;;;;;;47.70;44.97;;;26.60;99.90;;;;;;4998976;28;20084;-72
2023/07/08 08:28:23;;;;;;;46.90;44.28;;;26.80;99.90;;;;;;4999569;28;20481;-73
2023/07/08 08:30:50;;;;;;;47.55;44.85;;;26.30;99.90;;;;;;4992314;28;20034;-72
2023/07/08 08:33:19;;;;;;;49.30;46.58;;;26.40;99.90;;;;;;4992872;28;20069;-74
2023/07/08 08:35:46;;;;;;;50.47;47.67;;;26.50;99.90;;;;;;4993647;28;20042;-73
2023/07/08 08:38:12;;;;;;;51.08;48.03;;;26.60;99.90;;;;;;4995757;28;20045;-73
2023/07/08 08:40:41;;;;;;;52.30;49.08;;;26.70;99.90;;;;;;4996662;28;20164;-71
2023/07/08 08:43:35;;;;;;;51.17;48.05;;;26.90;99.90;;;;;;5002570;28;20046;-73
2023/07/08 08:46:09;;;;;;;51.88;48.88;;;27.10;99.90;;;;;;4992856;28;20109;-72
2023/07/08 08:48:45;;;;;;;51.97;48.90;;;27.50;99.90;;;;;;4990319;28;20038;-72
2023/07/08 08:51:15;;;;;;;51.67;48.78;;;27.50;99.90;;;;;;4998395;28;20042;-72
2023/07/08 08:53:43;;;;;;;51.83;49.03;;;27.50;99.90;;;;;;4996788;28;20038;-72
2023/07/08 08:56:27;;;;;;;50.45;47.72;;;27.70;99.90;;;;;;5000110;28;20062;-73
2023/07/08 08:59:06;;;;;;;51.92;48.95;;;28.00;99.90;;;;;;4991366;28;20073;-73
2023/07/08 09:01:33;;;;;;;54.00;50.72;;;28.20;99.90;;;;;;4993839;28;20062;-74
2023/07/08 09:04:20;;;;;;;53.13;49.95;;;28.60;99.90;;;;;;4992417;28;20631;-72
2023/07/08 09:06:48;;;;;;;52.90;49.90;;;28.50;99.90;;;;;;4994618;28;20455;-72
2023/07/08 09:09:39;;;;;;;51.88;48.67;;;28.60;99.90;;;;;;4996300;28;20042;-72
2023/07/08 09:12:13;;;;;;;52.72;49.72;;;28.40;99.90;;;;;;4980924;28;20708;-72
2023/07/08 09:14:42;;;;;;;54.90;51.88;;;28.10;99.90;;;;;;4993033;28;20049;-72
2023/07/08 09:17:35;;;;;;;54.45;51.35;;;28.10;99.90;;;;;;4997354;28;20111;-72
2023/07/08 09:20:06;;;;;;;55.90;52.88;;;28.20;99.90;;;;;;4992213;28;20042;-72
2023/07/08 09:23:03;;;;;;;53.83;50.83;;;28.20;99.90;;;;;;4994322;28;20041;-73
2023/07/08 09:25:33;;;;;;;53.88;50.97;;;28.70;99.90;;;;;;4993015;28;20862;-73
2023/07/08 09:28:00;;;;;;;55.28;52.20;;;28.60;99.90;;;;;;4995994;28;20635;-73
2023/07/08 09:30:30;;;;;;;53.72;50.78;;;28.50;99.90;;;;;;4990918;28;20149;-73
2023/07/08 09:32:57;;;;;;;54.35;51.45;;;28.50;99.90;;;;;;4995441;28;20046;-72
2023/07/08 09:35:37;;;;;;;53.78;50.78;;;28.60;99.90;;;;;;4997737;28;20050;-72
2023/07/08 09:38:15;;;;;;;53.75;50.83;;;28.90;99.90;;;;;;4992590;28;20116;-72
2023/07/08 09:40:54;;;;;;;56.08;53.05;;;28.80;99.90;;;;;;4994803;28;21628;-75
2023/07/08 09:43:38;;;;;;;56.42;53.42;;;28.70;99.90;;;;;;4996622;28;20060;-73
2023/07/08 09:46:12;;;;;;;55.42;52.33;;;28.80;99.90;;;;;;4994616;28;20087;-72
2023/07/08 09:48:39;;;;;;;54.92;51.92;;;29.10;99.90;;;;;;4990685;28;20079;-73
2023/07/08 09:51:08;;;;;;;55.60;52.40;;;29.20;99.90;;;;;;4996007;28;20044;-72
2023/07/08 09:53:35;;;;;;;56.58;53.45;;;29.80;99.90;;;;;;4995138;28;20091;-72
2023/07/08 09:56:04;;;;;;;57.83;54.72;;;30.00;99.90;;;;;;4995757;28;20058;-72
2023/07/08 09:58:40;;;;;;;57.88;54.78;;;30.10;99.90;;;;;;4990726;28;20045;-74
2023/07/08 10:01:15;;;;;;;57.85;54.55;;;30.30;99.90;;;;;;4990730;28;20050;-72
2023/07/08 10:03:42;;;;;;;57.55;54.45;;;30.00;99.90;;;;;;4989182;28;20050;-72
2023/07/08 10:06:26;;;;;;;58.17;54.97;;;30.20;99.90;;;;;;4992746;28;20069;-73
2023/07/08 10:09:02;;;;;;;57.28;54.08;;;30.00;99.00;;;;;;4997493;28;20038;-73
2023/07/08 10:11:42;;;;;;;57.88;54.58;;;29.80;99.70;;;;;;4996558;28;20068;-73
2023/07/08 10:14:34;;;;;;;56.13;53.00;;;29.80;98.90;;;;;;4998272;28;20064;-74
2023/07/08 10:17:01;;;;;;;53.58;50.58;;;29.80;99.70;;;;;;5010910;28;20045;-71
2023/07/08 10:19:28;;;;;;;54.63;51.60;;;30.00;99.20;;;;;;4990421;28;20662;-72
2023/07/08 10:22:15;;;;;;;55.95;52.92;;;29.50;99.90;;;;;;4992951;28;20073;-72
2023/07/08 10:25:13;;;;;;;54.60;51.63;;;29.60;99.90;;;;;;4982193;28;20222;-74
2023/07/08 10:28:00;;;;;;;56.45;53.35;;;29.80;99.90;;;;;;4992833;28;20042;-72
2023/07/08 10:30:47;;;;;;;52.92;49.88;;;29.80;99.90;;;;;;4987829;28;20030;-74
2023/07/08 10:33:28;;;;;;;55.17;51.97;;;29.90;99.90;;;;;;4987607;28;20112;-73
2023/07/08 10:36:10;;;;;;;54.15;51.15;;;30.50;99.80;;;;;;4991092;28;20481;-73
2023/07/08 10:38:59;;;;;;;55.03;52.13;;;30.80;99.90;;;;;;4988412;28;20746;-72
2023/07/08 10:41:53;;;;;;;54.78;51.88;;;30.10;98.80;;;;;;4972779;28;20116;-72
2023/07/08 10:44:37;;;;;;;56.47;53.33;;;30.10;99.00;;;;;;4986550;28;20054;-72
2023/07/08 10:47:40;;;;;;;54.67;51.58;;;30.70;98.90;;;;;;4982065;28;20141;-73
2023/07/08 10:50:42;;;;;;;54.72;51.63;;;30.90;97.90;;;;;;4994429;28;20072;-72
2023/07/08 10:53:18;;;;;;;55.97;52.85;;;31.10;98.60;;;;;;4995089;28;20038;-72
2023/07/08 10:55:58;;;;;;;56.53;53.42;;;31.70;97.30;;;;;;4990322;28;20099;-72
2023/07/08 10:58:34;;;;;;;55.53;52.45;;;31.70;95.10;;;;;;4988617;28;20080;-73
2023/07/08 11:01:25;;;;;;;54.50;51.50;;;31.00;95.70;;;;;;4989692;28;20104;-72
2023/07/08 11:03:55;;;;;;;54.13;51.10;;;30.80;95.80;;;;;;4987665;28;20525;-74
2023/07/08 11:06:44;;;;;;;56.70;53.38;;;30.50;95.90;;;;;;4992425;28;20630;-73
2023/07/08 11:09:15;;;;;;;56.90;53.80;;;30.50;96.50;;;;;;4994642;28;20041;-73
2023/07/08 11:11:53;;;;;;;57.35;54.15;;;30.60;96.30;;;;;;4992131;28;20045;-74
2023/07/08 11:14:47;;;;;;;55.90;52.85;;;30.40;96.80;;;;;;5003141;28;20089;-72
2023/07/08 11:17:31;;;;;;;56.42;53.33;;;30.20;96.10;;;;;;5010473;28;20038;-72
2023/07/08 11:20:22;;;;;;;57.72;54.40;;;30.20;96.40;;;;;;5020856;28;20051;-72
2023/07/08 11:23:03;;;;;;;55.88;52.80;;;30.40;98.10;;;;;;4997704;28;20129;-71
2023/07/08 11:25:32;;;;;;;56.15;52.90;;;30.70;96.10;;;;;;4992707;28;20104;-73
2023/07/08 11:28:04;;;;;;;56.90;53.75;;;30.70;95.00;;;;;;4986581;28;20056;-72
2023/07/08 11:30:34;;;;;;;57.33;54.22;;;30.70;96.00;;;;;;4987283;28;20819;-73
2023/07/08 11:33:09;;;;;;;58.78;55.45;;;30.80;96.50;;;;;;4988000;28;20046;-72
2023/07/08 11:35:46;;;;;;;57.97;54.67;;;31.00;95.20;;;;;;4992074;28;20065;-72
2023/07/08 11:38:16;;;;;;;56.97;53.75;;;31.10;94.50;;;;;;4990399;28;20129;-72
2023/07/08 11:41:10;;;;;;;59.03;55.83;;;31.20;95.80;;;;;;4988333;28;20049;-72
2023/07/08 11:43:47;;;;;;;60.63;57.27;;;31.00;95.60;;;;;;4985645;28;20073;-71
2023/07/08 11:46:19;;;;;;;59.33;55.95;;;30.80;93.40;;;;;;4990133;28;20895;-72
2023/07/08 11:48:52;;;;;;;57.13;53.95;;;31.20;94.40;;;;;;4985020;28;20042;-72
2023/07/08 11:51:38;;;;;;;58.38;55.15;;;31.50;92.40;;;;;;4991774;28;20057;-72
2023/07/08 11:54:30;;;;;;;54.88;51.65;;;31.50;92.40;;;;;;4974891;28;20673;-72
2023/07/08 11:57:04;;;;;;;56.28;53.08;;;31.50;93.20;;;;;;4988917;28;20042;-73
2023/07/08 11:59:38;;;;;;;57.70;54.50;;;31.50;94.20;;;;;;4969265;28;20054;-71
2023/07/08 12:02:18;;;;;;;56.78;53.53;;;31.50;94.10;;;;;;4990932;28;20132;-73
2023/07/08 12:05:00;;;;;;;56.50;53.33;;;31.50;92.20;;;;;;4987417;28;20221;-72
2023/07/08 12:07:40;;;;;;;56.55;53.13;;;31.60;91.80;;;;;;4983874;28;20085;-72
2023/07/08 12:10:18;;;;;;;56.65;53.45;;;31.80;90.20;;;;;;4985000;28;20095;-72
2023/07/08 12:12:46;;;;;;;59.55;55.92;;;31.70;89.30;;;;;;4987540;28;20080;-73
2023/07/08 12:15:22;;;;;;;58.05;54.75;;;31.60;89.40;;;;;;4991630;28;20493;-72
2023/07/08 12:17:53;;;;;;;55.75;52.70;;;31.50;90.10;;;;;;4982799;28;20451;-73
2023/07/08 12:20:24;;;;;;;58.10;54.60;;;31.90;91.10;;;;;;4987616;28;20034;-72
2023/07/08 12:22:51;;;;;;;57.35;54.05;;;32.10;87.50;;;;;;4986094;28;20050;-74
2023/07/08 12:25:22;;;;;;;56.30;53.15;;;32.20;89.50;;;;;;4985734;28;20034;-73
2023/07/08 12:27:49;;;;;;;57.15;53.97;;;32.10;84.70;;;;;;4985595;28;20050;-72
2023/07/08 12:30:16;;;;;;;57.55;54.30;;;32.10;86.80;;;;;;4966098;28;20062;-72
2023/07/08 12:32:44;;;;;;;59.63;56.22;;;32.00;86.20;;;;;;4989938;28;20053;-74
2023/07/08 12:35:25;;;;;;;56.80;53.60;;;31.80;87.40;;;;;;4990593;28;20047;-73
2023/07/08 12:37:54;;;;;;;60.67;57.28;;;32.10;86.60;;;;;;4985484;28;20049;-74
2023/07/08 12:40:22;;;;;;;58.97;55.47;;;32.10;85.20;;;;;;4991226;28;20602;-74
2023/07/08 12:42:50;;;;;;;57.80;54.40;;;32.00;85.20;;;;;;4988751;28;20038;-73
2023/07/08 12:45:21;;;;;;;55.80;52.72;;;32.10;83.50;;;;;;4987819;28;20076;-73
2023/07/08 12:47:48;;;;;;;57.08;53.88;;;32.20;86.00;;;;;;4988087;28;20912;-71